sensor_id;sensor_type;location;lat;lon;timestamp;pressure;altitude;pressure_sealevel;temperature;humidity
41654;BME280;68687;52.030;7.110;2023-04-28T00:02:11;100720.22;;;7.90;53.98
41654;BME280;68687;52.030;7.110;2023-04-28T00:04:37;100722.78;;;8.00;53.03
41654;BME280;68687;52.030;7.110;2023-04-28T00:07:02;100722.94;;;7.98;53.27
41654;BME280;68687;52.030;7.110;2023-04-28T00:09:28;100721.25;;;7.97;53.14
41654;BME280;68687;52.030;7.110;2023-04-28T00:11:53;100724.78;;;7.98;53.60
41654;BME280;68687;52.030;7.110;2023-04-28T00:14:21;100714.88;;;7.90;54.12
41654;BME280;68687;52.030;7.110;2023-04-28T00:16:49;100701.88;;;8.03;52.75
41654;BME280;68687;52.030;7.110;2023-04-28T00:19:15;100703.19;;;7.83;54.09
41654;BME280;68687;52.030;7.110;2023-04-28T00:21:40;100706.69;;;7.84;54.58
41654;BME280;68687;52.030;7.110;2023-04-28T00:24:05;100712.03;;;7.92;53.85
41654;BME280;68687;52.030;7.110;2023-04-28T00:26:31;100705.03;;;7.91;53.33
41654;BME280;68687;52.030;7.110;2023-04-28T00:28:56;100700.00;;;7.88;53.83
41654;BME280;68687;52.030;7.110;2023-04-28T00:31:21;100686.31;;;7.83;54.28
41654;BME280;68687;52.030;7.110;2023-04-28T00:33:47;100676.94;;;7.70;54.56
41654;BME280;68687;52.030;7.110;2023-04-28T00:36:12;100677.13;;;7.77;54.56
41654;BME280;68687;52.030;7.110;2023-04-28T00:38:37;100674.28;;;7.70;54.38
41654;BME280;68687;52.030;7.110;2023-04-28T00:41:04;100675.78;;;7.73;54.45
41654;BME280;68687;52.030;7.110;2023-04-28T00:43:29;100674.09;;;7.72;54.57
41654;BME280;68687;52.030;7.110;2023-04-28T00:45:58;100679.97;;;7.75;54.33
41654;BME280;68687;52.030;7.110;2023-04-28T00:48:26;100669.28;;;7.75;54.52
41654;BME280;68687;52.030;7.110;2023-04-28T00:50:53;100657.41;;;7.78;54.60
41654;BME280;68687;52.030;7.110;2023-04-28T00:53:22;100654.22;;;7.74;55.09
41654;BME280;68687;52.030;7.110;2023-04-28T00:55:47;100666.09;;;7.80;54.17
41654;BME280;68687;52.030;7.110;2023-04-28T00:58:15;100656.41;;;7.71;54.86
41654;BME280;68687;52.030;7.110;2023-04-28T01:00:40;100651.22;;;7.69;55.29
41654;BME280;68687;52.030;7.110;2023-04-28T01:03:17;100653.56;;;7.81;54.63
41654;BME280;68687;52.030;7.110;2023-04-28T01:05:43;100653.22;;;7.75;54.27
41654;BME280;68687;52.030;7.110;2023-04-28T01:08:08;100644.53;;;7.73;54.61
41654;BME280;68687;52.030;7.110;2023-04-28T01:10:34;100643.72;;;7.81;54.08
41654;BME280;68687;52.030;7.110;2023-04-28T01:12:59;100644.56;;;7.82;54.26
41654;BME280;68687;52.030;7.110;2023-04-28T01:15:24;100634.53;;;7.84;54.20
41654;BME280;68687;52.030;7.110;2023-04-28T01:17:51;100629.50;;;7.72;54.51
41654;BME280;68687;52.030;7.110;2023-04-28T01:20:19;100639.19;;;7.73;54.84
41654;BME280;68687;52.030;7.110;2023-04-28T01:22:45;100635.88;;;7.80;54.25
41654;BME280;68687;52.030;7.110;2023-04-28T01:25:13;100620.50;;;7.82;54.50
41654;BME280;68687;52.030;7.110;2023-04-28T01:27:38;100618.81;;;7.72;54.54
41654;BME280;68687;52.030;7.110;2023-04-28T01:30:04;100613.31;;;7.74;54.94
41654;BME280;68687;52.030;7.110;2023-04-28T01:32:30;100614.13;;;7.66;55.11
41654;BME280;68687;52.030;7.110;2023-04-28T01:34:56;100612.97;;;7.69;55.21
41654;BME280;68687;52.030;7.110;2023-04-28T01:37:21;100611.31;;;7.68;54.72
41654;BME280;68687;52.030;7.110;2023-04-28T01:39:46;100613.66;;;7.79;55.20
41654;BME280;68687;52.030;7.110;2023-04-28T01:42:11;100619.50;;;7.74;54.69
41654;BME280;68687;52.030;7.110;2023-04-28T01:44:37;100607.47;;;7.79;54.93
41654;BME280;68687;52.030;7.110;2023-04-28T01:47:02;100598.13;;;7.74;55.21
41654;BME280;68687;52.030;7.110;2023-04-28T01:49:27;100593.09;;;7.88;54.63
41654;BME280;68687;52.030;7.110;2023-04-28T01:51:52;100590.44;;;7.71;55.45
41654;BME280;68687;52.030;7.110;2023-04-28T01:54:24;100589.59;;;7.79;55.09
41654;BME280;68687;52.030;7.110;2023-04-28T01:56:49;100581.09;;;7.75;55.29
41654;BME280;68687;52.030;7.110;2023-04-28T01:59:14;100582.91;;;7.75;55.12
41654;BME280;68687;52.030;7.110;2023-04-28T02:01:40;100587.09;;;7.86;55.10
41654;BME280;68687;52.030;7.110;2023-04-28T02:04:08;100578.25;;;7.77;55.21
41654;BME280;68687;52.030;7.110;2023-04-28T02:06:33;100585.94;;;7.80;55.79
41654;BME280;68687;52.030;7.110;2023-04-28T02:08:58;100583.91;;;7.82;56.05
41654;BME280;68687;52.030;7.110;2023-04-28T02:11:24;100581.91;;;7.84;55.63
41654;BME280;68687;52.030;7.110;2023-04-28T02:13:49;100577.41;;;7.85;55.86
41654;BME280;68687;52.030;7.110;2023-04-28T02:16:18;100576.56;;;7.92;55.95
41654;BME280;68687;52.030;7.110;2023-04-28T02:18:43;100571.38;;;7.91;55.68
41654;BME280;68687;52.030;7.110;2023-04-28T02:21:09;100581.72;;;7.94;56.13
41654;BME280;68687;52.030;7.110;2023-04-28T02:23:35;100572.22;;;7.91;55.65
41654;BME280;68687;52.030;7.110;2023-04-28T02:26:01;100576.22;;;7.87;56.12
41654;BME280;68687;52.030;7.110;2023-04-28T02:28:27;100570.38;;;7.92;56.40
41654;BME280;68687;52.030;7.110;2023-04-28T02:31:02;100568.38;;;7.86;56.63
41654;BME280;68687;52.030;7.110;2023-04-28T02:33:31;100569.03;;;7.88;56.38
41654;BME280;68687;52.030;7.110;2023-04-28T02:36:03;100570.41;;;8.00;56.34
41654;BME280;68687;52.030;7.110;2023-04-28T02:38:29;100570.53;;;7.90;57.52
41654;BME280;68687;52.030;7.110;2023-04-28T02:41:04;100568.38;;;7.94;57.13
41654;BME280;68687;52.030;7.110;2023-04-28T02:43:30;100557.00;;;8.08;56.61
41654;BME280;68687;52.030;7.110;2023-04-28T02:45:56;100559.69;;;7.92;56.58
41654;BME280;68687;52.030;7.110;2023-04-28T02:48:23;100562.88;;;8.03;56.65
41654;BME280;68687;52.030;7.110;2023-04-28T02:50:48;100561.38;;;8.01;57.59
41654;BME280;68687;52.030;7.110;2023-04-28T02:53:14;100560.53;;;8.00;57.21
41654;BME280;68687;52.030;7.110;2023-04-28T02:55:39;100553.00;;;8.12;56.54
41654;BME280;68687;52.030;7.110;2023-04-28T02:58:07;100554.50;;;8.06;57.37
41654;BME280;68687;52.030;7.110;2023-04-28T03:00:32;100554.03;;;8.03;57.86
41654;BME280;68687;52.030;7.110;2023-04-28T03:02:58;100556.66;;;8.11;57.59
41654;BME280;68687;52.030;7.110;2023-04-28T03:05:23;100556.38;;;7.98;58.71
41654;BME280;68687;52.030;7.110;2023-04-28T03:07:48;100554.16;;;8.10;58.56
41654;BME280;68687;52.030;7.110;2023-04-28T03:10:14;100549.81;;;8.09;60.43
41654;BME280;68687;52.030;7.110;2023-04-28T03:12:45;100559.31;;;8.19;60.86
41654;BME280;68687;52.030;7.110;2023-04-28T03:15:11;100547.47;;;8.14;60.24
41654;BME280;68687;52.030;7.110;2023-04-28T03:17:36;100545.63;;;8.14;60.50
41654;BME280;68687;52.030;7.110;2023-04-28T03:20:06;100534.78;;;8.07;61.69
41654;BME280;68687;52.030;7.110;2023-04-28T03:22:32;100543.31;;;8.03;62.39
41654;BME280;68687;52.030;7.110;2023-04-28T03:25:01;100540.66;;;7.95;63.30
41654;BME280;68687;52.030;7.110;2023-04-28T03:27:26;100532.97;;;8.00;62.02
41654;BME280;68687;52.030;7.110;2023-04-28T03:29:51;100537.63;;;8.06;62.18
41654;BME280;68687;52.030;7.110;2023-04-28T03:32:17;100530.44;;;8.15;62.19
41654;BME280;68687;52.030;7.110;2023-04-28T03:34:42;100518.25;;;8.04;61.33
41654;BME280;68687;52.030;7.110;2023-04-28T03:37:07;100521.97;;;7.95;62.59
41654;BME280;68687;52.030;7.110;2023-04-28T03:39:32;100525.63;;;8.02;61.68
41654;BME280;68687;52.030;7.110;2023-04-28T03:41:58;100524.94;;;7.92;62.17
41654;BME280;68687;52.030;7.110;2023-04-28T03:44:23;100509.59;;;7.86;62.23
41654;BME280;68687;52.030;7.110;2023-04-28T03:46:49;100504.56;;;7.91;62.62
41654;BME280;68687;52.030;7.110;2023-04-28T03:49:14;100508.59;;;7.95;62.16
41654;BME280;68687;52.030;7.110;2023-04-28T03:51:40;100488.22;;;7.86;62.57
41654;BME280;68687;52.030;7.110;2023-04-28T03:54:08;100486.53;;;7.85;63.20
41654;BME280;68687;52.030;7.110;2023-04-28T03:56:37;100481.38;;;7.83;63.42
41654;BME280;68687;52.030;7.110;2023-04-28T03:59:02;100465.50;;;7.82;63.95
41654;BME280;68687;52.030;7.110;2023-04-28T04:01:30;100471.81;;;8.05;62.88
41654;BME280;68687;52.030;7.110;2023-04-28T04:03:56;100470.97;;;8.04;63.97
41654;BME280;68687;52.030;7.110;2023-04-28T04:06:21;100464.81;;;7.88;63.96
41654;BME280;68687;52.030;7.110;2023-04-28T04:08:49;100464.16;;;7.86;64.65
41654;BME280;68687;52.030;7.110;2023-04-28T04:11:15;100460.50;;;7.79;64.77
41654;BME280;68687;52.030;7.110;2023-04-28T04:13:40;100462.16;;;7.80;66.55
41654;BME280;68687;52.030;7.110;2023-04-28T04:16:06;100454.47;;;7.85;65.83
41654;BME280;68687;52.030;7.110;2023-04-28T04:18:31;100458.13;;;7.92;66.56
41654;BME280;68687;52.030;7.110;2023-04-28T04:20:56;100457.63;;;7.96;67.46
41654;BME280;68687;52.030;7.110;2023-04-28T04:23:25;100460.47;;;7.95;67.11
41654;BME280;68687;52.030;7.110;2023-04-28T04:25:50;100460.28;;;8.04;67.82
41654;BME280;68687;52.030;7.110;2023-04-28T04:28:15;100465.66;;;7.88;68.47
41654;BME280;68687;52.030;7.110;2023-04-28T04:30:44;100468.31;;;7.96;68.49
41654;BME280;68687;52.030;7.110;2023-04-28T04:33:09;100474.13;;;8.08;68.27
41654;BME280;68687;52.030;7.110;2023-04-28T04:35:34;100464.44;;;8.07;68.86
41654;BME280;68687;52.030;7.110;2023-04-28T04:38:00;100475.50;;;7.96;69.82
41654;BME280;68687;52.030;7.110;2023-04-28T04:40:25;100466.00;;;7.85;69.21
41654;BME280;68687;52.030;7.110;2023-04-28T04:42:57;100464.47;;;7.91;70.24
41654;BME280;68687;52.030;7.110;2023-04-28T04:45:22;100465.97;;;7.93;69.72
41654;BME280;68687;52.030;7.110;2023-04-28T04:47:51;100469.16;;;7.97;69.52
41654;BME280;68687;52.030;7.110;2023-04-28T04:50:17;100463.28;;;7.93;70.17
41654;BME280;68687;52.030;7.110;2023-04-28T04:52:42;100455.75;;;8.05;71.02
41654;BME280;68687;52.030;7.110;2023-04-28T04:55:08;100453.78;;;7.91;72.03
41654;BME280;68687;52.030;7.110;2023-04-28T04:57:35;100445.44;;;7.86;73.07
41654;BME280;68687;52.030;7.110;2023-04-28T05:00:00;100448.09;;;8.02;74.99
41654;BME280;68687;52.030;7.110;2023-04-28T05:02:29;100437.75;;;7.91;73.89
41654;BME280;68687;52.030;7.110;2023-04-28T05:04:54;100442.88;;;8.09;73.47
41654;BME280;68687;52.030;7.110;2023-04-28T05:07:20;100439.00;;;8.19;74.84
41654;BME280;68687;52.030;7.110;2023-04-28T05:09:45;100442.84;;;8.17;73.42
41654;BME280;68687;52.030;7.110;2023-04-28T05:12:10;100442.69;;;8.18;73.95
41654;BME280;68687;52.030;7.110;2023-04-28T05:14:35;100446.34;;;8.25;74.68
41654;BME280;68687;52.030;7.110;2023-04-28T05:17:01;100441.13;;;8.32;74.19
41654;BME280;68687;52.030;7.110;2023-04-28T05:19:26;100433.47;;;8.37;74.01
41654;BME280;68687;52.030;7.110;2023-04-28T05:21:52;100442.13;;;8.39;73.59
41654;BME280;68687;52.030;7.110;2023-04-28T05:24:22;100435.78;;;8.40;73.64
41654;BME280;68687;52.030;7.110;2023-04-28T05:26:58;100441.13;;;8.40;74.42
41654;BME280;68687;52.030;7.110;2023-04-28T05:29:26;100440.84;;;8.66;74.41
41654;BME280;68687;52.030;7.110;2023-04-28T05:31:57;100441.72;;;8.58;75.21
41654;BME280;68687;52.030;7.110;2023-04-28T05:34:23;100442.84;;;8.64;75.72
41654;BME280;68687;52.030;7.110;2023-04-28T05:36:48;100438.91;;;8.83;75.74
41654;BME280;68687;52.030;7.110;2023-04-28T05:39:13;100446.88;;;8.91;75.80
41654;BME280;68687;52.030;7.110;2023-04-28T05:41:42;100440.56;;;8.84;76.37
41654;BME280;68687;52.030;7.110;2023-04-28T05:44:07;100444.91;;;8.85;76.78
41654;BME280;68687;52.030;7.110;2023-04-28T05:46:33;100428.06;;;8.76;77.32
41654;BME280;68687;52.030;7.110;2023-04-28T05:48:58;100427.56;;;8.81;77.34
41654;BME280;68687;52.030;7.110;2023-04-28T05:51:23;100419.22;;;8.98;77.85
41654;BME280;68687;52.030;7.110;2023-04-28T05:53:49;100415.78;;;8.90;77.68
41654;BME280;68687;52.030;7.110;2023-04-28T05:56:15;100420.00;;;9.07;77.85
41654;BME280;68687;52.030;7.110;2023-04-28T05:58:41;100418.53;;;9.05;79.08
41654;BME280;68687;52.030;7.110;2023-04-28T06:01:08;100407.28;;;9.09;79.78
41654;BME280;68687;52.030;7.110;2023-04-28T06:03:36;100401.78;;;9.03;81.16
41654;BME280;68687;52.030;7.110;2023-04-28T06:06:02;100406.09;;;9.12;80.73
41654;BME280;68687;52.030;7.110;2023-04-28T06:08:27;100403.03;;;9.15;81.44
41654;BME280;68687;52.030;7.110;2023-04-28T06:10:55;100406.28;;;9.25;81.22
41654;BME280;68687;52.030;7.110;2023-04-28T06:13:23;100409.63;;;9.27;81.65
41654;BME280;68687;52.030;7.110;2023-04-28T06:15:49;100404.63;;;9.24;81.62
41654;BME280;68687;52.030;7.110;2023-04-28T06:18:14;100406.75;;;9.28;82.21
41654;BME280;68687;52.030;7.110;2023-04-28T06:20:42;100400.72;;;9.35;81.61
41654;BME280;68687;52.030;7.110;2023-04-28T06:23:07;100399.91;;;9.26;81.50
41654;BME280;68687;52.030;7.110;2023-04-28T06:25:34;100394.09;;;9.22;82.00
41654;BME280;68687;52.030;7.110;2023-04-28T06:28:00;100401.59;;;9.27;82.05
41654;BME280;68687;52.030;7.110;2023-04-28T06:30:28;100405.41;;;9.33;81.10
41654;BME280;68687;52.030;7.110;2023-04-28T06:32:54;100386.56;;;9.41;81.92
41654;BME280;68687;52.030;7.110;2023-04-28T06:35:21;100381.03;;;9.42;81.09
41654;BME280;68687;52.030;7.110;2023-04-28T06:37:47;100373.19;;;9.41;80.30
41654;BME280;68687;52.030;7.110;2023-04-28T06:40:12;100370.63;;;9.62;81.07
41654;BME280;68687;52.030;7.110;2023-04-28T06:42:38;100374.41;;;9.68;80.12
41654;BME280;68687;52.030;7.110;2023-04-28T06:45:03;100376.72;;;9.71;79.42
41654;BME280;68687;52.030;7.110;2023-04-28T06:47:28;100374.88;;;9.86;78.65
41654;BME280;68687;52.030;7.110;2023-04-28T06:49:57;100377.84;;;9.91;78.62
41654;BME280;68687;52.030;7.110;2023-04-28T06:52:22;100401.03;;;9.84;78.67
41654;BME280;68687;52.030;7.110;2023-04-28T06:54:48;100398.00;;;9.87;78.61
41654;BME280;68687;52.030;7.110;2023-04-28T06:57:14;100398.72;;;9.81;78.30
41654;BME280;68687;52.030;7.110;2023-04-28T06:59:40;100397.34;;;9.85;78.79
41654;BME280;68687;52.030;7.110;2023-04-28T07:02:14;100398.91;;;9.79;79.34
41654;BME280;68687;52.030;7.110;2023-04-28T07:04:42;100390.97;;;10.01;77.89
41654;BME280;68687;52.030;7.110;2023-04-28T07:07:11;100387.28;;;10.02;78.09
41654;BME280;68687;52.030;7.110;2023-04-28T07:09:37;100386.91;;;10.05;78.05
41654;BME280;68687;52.030;7.110;2023-04-28T07:12:02;100391.34;;;9.98;79.15
41654;BME280;68687;52.030;7.110;2023-04-28T07:14:28;100391.44;;;10.04;78.72
41654;BME280;68687;52.030;7.110;2023-04-28T07:16:54;100400.88;;;10.00;79.18
41654;BME280;68687;52.030;7.110;2023-04-28T07:19:19;100400.88;;;10.00;78.71
41654;BME280;68687;52.030;7.110;2023-04-28T07:21:44;100397.81;;;10.03;79.70
41654;BME280;68687;52.030;7.110;2023-04-28T07:24:10;100403.06;;;10.11;79.59
41654;BME280;68687;52.030;7.110;2023-04-28T07:26:35;100405.88;;;10.18;79.10
41654;BME280;68687;52.030;7.110;2023-04-28T07:29:03;100405.53;;;10.21;79.71
41654;BME280;68687;52.030;7.110;2023-04-28T07:31:29;100398.66;;;10.18;79.44
41654;BME280;68687;52.030;7.110;2023-04-28T07:33:57;100412.25;;;10.02;80.07
41654;BME280;68687;52.030;7.110;2023-04-28T07:36:22;100401.88;;;10.14;81.72
41654;BME280;68687;52.030;7.110;2023-04-28T07:38:48;100411.75;;;10.13;83.49
41654;BME280;68687;52.030;7.110;2023-04-28T07:41:13;100383.66;;;10.09;85.24
41654;BME280;68687;52.030;7.110;2023-04-28T07:43:39;100389.13;;;10.01;85.66
41654;BME280;68687;52.030;7.110;2023-04-28T07:46:06;100386.63;;;10.00;86.73
41654;BME280;68687;52.030;7.110;2023-04-28T07:48:41;100379.25;;;9.87;87.63
41654;BME280;68687;52.030;7.110;2023-04-28T07:51:09;100376.19;;;9.90;88.32
41654;BME280;68687;52.030;7.110;2023-04-28T07:53:35;100370.63;;;9.77;89.84
41654;BME280;68687;52.030;7.110;2023-04-28T07:56:00;100363.59;;;9.76;90.91
41654;BME280;68687;52.030;7.110;2023-04-28T07:58:26;100371.81;;;9.74;90.61
41654;BME280;68687;52.030;7.110;2023-04-28T08:00:54;100373.97;;;9.94;88.88
41654;BME280;68687;52.030;7.110;2023-04-28T08:03:19;100386.16;;;9.81;90.56
41654;BME280;68687;52.030;7.110;2023-04-28T08:05:48;100388.00;;;9.81;90.34
41654;BME280;68687;52.030;7.110;2023-04-28T08:08:13;100373.41;;;9.83;90.58
41654;BME280;68687;52.030;7.110;2023-04-28T08:10:39;100378.28;;;9.80;90.02
41654;BME280;68687;52.030;7.110;2023-04-28T08:13:06;100384.94;;;9.84;91.15
41654;BME280;68687;52.030;7.110;2023-04-28T08:15:31;100392.81;;;9.85;90.61
41654;BME280;68687;52.030;7.110;2023-04-28T08:17:57;100386.72;;;9.91;91.21
41654;BME280;68687;52.030;7.110;2023-04-28T08:20:22;100380.97;;;10.09;89.98
41654;BME280;68687;52.030;7.110;2023-04-28T08:22:47;100380.88;;;10.17;90.36
41654;BME280;68687;52.030;7.110;2023-04-28T08:25:15;100389.00;;;10.09;90.22
41654;BME280;68687;52.030;7.110;2023-04-28T08:27:42;100388.00;;;10.10;90.13
41654;BME280;68687;52.030;7.110;2023-04-28T08:30:08;100380.06;;;10.02;91.34
41654;BME280;68687;52.030;7.110;2023-04-28T08:32:36;100385.53;;;10.24;90.58
41654;BME280;68687;52.030;7.110;2023-04-28T08:35:05;100385.16;;;10.27;90.64
41654;BME280;68687;52.030;7.110;2023-04-28T08:37:31;100376.81;;;10.36;90.83
41654;BME280;68687;52.030;7.110;2023-04-28T08:40:02;100383.88;;;10.23;89.49
41654;BME280;68687;52.030;7.110;2023-04-28T08:42:36;100383.63;;;10.39;91.74
41654;BME280;68687;52.030;7.110;2023-04-28T08:45:03;100376.25;;;10.41;90.59
41654;BME280;68687;52.030;7.110;2023-04-28T08:47:34;100378.25;;;10.53;90.71
41654;BME280;68687;52.030;7.110;2023-04-28T08:50:05;100376.53;;;10.67;89.81
41654;BME280;68687;52.030;7.110;2023-04-28T08:52:34;100372.22;;;10.88;90.23
41654;BME280;68687;52.030;7.110;2023-04-28T08:55:11;100370.69;;;10.78;89.52
41654;BME280;68687;52.030;7.110;2023-04-28T08:57:49;100373.41;;;10.85;90.00
41654;BME280;68687;52.030;7.110;2023-04-28T09:00:16;100373.03;;;10.88;90.61
41654;BME280;68687;52.030;7.110;2023-04-28T09:02:41;100370.94;;;10.83;90.58
41654;BME280;68687;52.030;7.110;2023-04-28T09:05:11;100373.47;;;10.92;89.01
41654;BME280;68687;52.030;7.110;2023-04-28T09:07:37;100371.97;;;11.04;89.41
41654;BME280;68687;52.030;7.110;2023-04-28T09:10:31;100375.03;;;11.01;89.25
41654;BME280;68687;52.030;7.110;2023-04-28T09:13:00;100364.59;;;11.12;87.96
41654;BME280;68687;52.030;7.110;2023-04-28T09:15:36;100363.38;;;11.15;89.54
41654;BME280;68687;52.030;7.110;2023-04-28T09:18:05;100358.16;;;11.35;89.64
41654;BME280;68687;52.030;7.110;2023-04-28T09:20:32;100351.69;;;11.51;88.65
41654;BME280;68687;52.030;7.110;2023-04-28T09:25:57;100343.94;;;12.03;87.43
41654;BME280;68687;52.030;7.110;2023-04-28T09:28:23;100337.59;;;12.18;88.53
41654;BME280;68687;52.030;7.110;2023-04-28T09:30:48;100338.66;;;12.30;85.68
41654;BME280;68687;52.030;7.110;2023-04-28T09:33:16;100339.28;;;12.32;86.57
41654;BME280;68687;52.030;7.110;2023-04-28T09:35:42;100332.09;;;12.52;84.82
41654;BME280;68687;52.030;7.110;2023-04-28T09:38:10;100334.06;;;13.05;86.90
41654;BME280;68687;52.030;7.110;2023-04-28T09:43:24;100339.50;;;13.24;81.81
41654;BME280;68687;52.030;7.110;2023-04-28T09:45:50;100338.19;;;13.67;79.64
41654;BME280;68687;52.030;7.110;2023-04-28T09:48:28;100341.06;;;13.85;81.54
41654;BME280;68687;52.030;7.110;2023-04-28T09:50:58;100338.84;;;14.20;77.55
41654;BME280;68687;52.030;7.110;2023-04-28T09:53:25;100339.00;;;13.74;77.14
41654;BME280;68687;52.030;7.110;2023-04-28T09:55:52;100340.47;;;13.70;77.49
41654;BME280;68687;52.030;7.110;2023-04-28T09:58:21;100334.75;;;14.11;76.69
41654;BME280;68687;52.030;7.110;2023-04-28T10:01:07;100328.25;;;14.18;76.06
41654;BME280;68687;52.030;7.110;2023-04-28T10:03:41;100322.84;;;13.74;76.46
41654;BME280;68687;52.030;7.110;2023-04-28T10:06:08;100324.00;;;13.98;76.74
41654;BME280;68687;52.030;7.110;2023-04-28T10:08:33;100331.50;;;14.40;76.99
41654;BME280;68687;52.030;7.110;2023-04-28T10:11:00;100333.34;;;13.95;76.48
41654;BME280;68687;52.030;7.110;2023-04-28T10:13:25;100330.25;;;13.85;76.33
41654;BME280;68687;52.030;7.110;2023-04-28T10:15:51;100330.91;;;13.80;78.12
41654;BME280;68687;52.030;7.110;2023-04-28T10:18:25;100321.13;;;13.86;75.92
41654;BME280;68687;52.030;7.110;2023-04-28T10:20:59;100321.09;;;13.92;76.65
41654;BME280;68687;52.030;7.110;2023-04-28T10:25:58;100304.97;;;13.66;78.53
41654;BME280;68687;52.030;7.110;2023-04-28T10:28:27;100309.88;;;13.96;76.93
41654;BME280;68687;52.030;7.110;2023-04-28T10:31:15;100307.41;;;14.45;76.96
41654;BME280;68687;52.030;7.110;2023-04-28T10:33:41;100307.00;;;14.73;75.31
41654;BME280;68687;52.030;7.110;2023-04-28T10:36:07;100303.44;;;14.48;75.74
41654;BME280;68687;52.030;7.110;2023-04-28T10:38:34;100297.47;;;14.71;77.08
41654;BME280;68687;52.030;7.110;2023-04-28T10:41:00;100297.28;;;14.97;75.98
41654;BME280;68687;52.030;7.110;2023-04-28T10:56:09;100274.50;;;15.11;73.50
41654;BME280;68687;52.030;7.110;2023-04-28T10:58:40;100278.56;;;14.96;74.10
41654;BME280;68687;52.030;7.110;2023-04-28T11:06:21;100276.59;;;15.09;74.50
41654;BME280;68687;52.030;7.110;2023-04-28T11:11:32;100264.47;;;14.94;74.84
41654;BME280;68687;52.030;7.110;2023-04-28T11:14:33;100264.34;;;14.82;74.71
41654;BME280;68687;52.030;7.110;2023-04-28T11:17:01;100265.88;;;14.71;75.54
41654;BME280;68687;52.030;7.110;2023-04-28T11:19:32;100266.50;;;14.98;75.17
41654;BME280;68687;52.030;7.110;2023-04-28T11:21:59;100267.84;;;14.89;76.02
41654;BME280;68687;52.030;7.110;2023-04-28T11:24:29;100268.19;;;14.68;76.79
41654;BME280;68687;52.030;7.110;2023-04-28T11:26:58;100267.16;;;14.69;77.94
41654;BME280;68687;52.030;7.110;2023-04-28T11:29:37;100261.75;;;14.69;78.82
41654;BME280;68687;52.030;7.110;2023-04-28T11:32:04;100260.22;;;14.41;79.74
41654;BME280;68687;52.030;7.110;2023-04-28T11:34:29;100262.81;;;14.30;80.59
41654;BME280;68687;52.030;7.110;2023-04-28T11:36:55;100262.53;;;14.44;81.60
41654;BME280;68687;52.030;7.110;2023-04-28T11:39:36;100263.97;;;14.40;79.87
41654;BME280;68687;52.030;7.110;2023-04-28T11:42:08;100263.59;;;14.37;79.95
41654;BME280;68687;52.030;7.110;2023-04-28T11:44:40;100265.53;;;14.23;79.92
41654;BME280;68687;52.030;7.110;2023-04-28T11:47:06;100266.72;;;14.34;81.14
41654;BME280;68687;52.030;7.110;2023-04-28T11:49:41;100280.75;;;14.11;82.74
41654;BME280;68687;52.030;7.110;2023-04-28T11:52:13;100269.19;;;14.04;84.93
41654;BME280;68687;52.030;7.110;2023-04-28T11:54:39;100268.34;;;14.03;86.60
41654;BME280;68687;52.030;7.110;2023-04-28T11:57:19;100261.59;;;14.19;87.84
41654;BME280;68687;52.030;7.110;2023-04-28T11:59:45;100258.53;;;14.53;86.57
41654;BME280;68687;52.030;7.110;2023-04-28T12:02:29;100253.69;;;14.62;84.94
41654;BME280;68687;52.030;7.110;2023-04-28T12:04:55;100263.41;;;14.70;84.83
41654;BME280;68687;52.030;7.110;2023-04-28T12:07:20;100270.19;;;14.47;83.49
41654;BME280;68687;52.030;7.110;2023-04-28T12:09:48;100267.50;;;14.47;83.78
41654;BME280;68687;52.030;7.110;2023-04-28T12:12:33;100266.06;;;14.38;84.56
41654;BME280;68687;52.030;7.110;2023-04-28T12:15:00;100265.34;;;14.18;85.40
41654;BME280;68687;52.030;7.110;2023-04-28T12:17:49;100269.88;;;14.24;86.36
41654;BME280;68687;52.030;7.110;2023-04-28T12:20:34;100270.00;;;14.42;84.71
41654;BME280;68687;52.030;7.110;2023-04-28T12:23:00;100272.09;;;14.40;85.37
41654;BME280;68687;52.030;7.110;2023-04-28T12:25:26;100275.91;;;14.26;85.79
41654;BME280;68687;52.030;7.110;2023-04-28T12:28:05;100285.97;;;14.06;88.25
41654;BME280;68687;52.030;7.110;2023-04-28T12:30:36;100279.75;;;14.05;89.21
41654;BME280;68687;52.030;7.110;2023-04-28T12:33:25;100281.50;;;13.80;90.79
41654;BME280;68687;52.030;7.110;2023-04-28T12:35:51;100281.69;;;13.85;91.70
41654;BME280;68687;52.030;7.110;2023-04-28T12:38:25;100293.53;;;13.84;94.96
41654;BME280;68687;52.030;7.110;2023-04-28T12:40:54;100281.47;;;13.86;94.36
41654;BME280;68687;52.030;7.110;2023-04-28T12:43:20;100282.56;;;13.79;95.47
41654;BME280;68687;52.030;7.110;2023-04-28T12:45:50;100284.19;;;13.86;95.68
41654;BME280;68687;52.030;7.110;2023-04-28T12:48:20;100280.50;;;14.19;93.80
41654;BME280;68687;52.030;7.110;2023-04-28T12:50:46;100276.66;;;14.02;93.60
41654;BME280;68687;52.030;7.110;2023-04-28T12:53:11;100281.44;;;14.00;95.26
41654;BME280;68687;52.030;7.110;2023-04-28T12:55:37;100282.50;;;13.99;94.05
41654;BME280;68687;52.030;7.110;2023-04-28T12:58:05;100291.78;;;14.09;93.30
41654;BME280;68687;52.030;7.110;2023-04-28T13:00:30;100283.94;;;13.95;91.72
41654;BME280;68687;52.030;7.110;2023-04-28T13:02:56;100277.91;;;13.99;92.46
41654;BME280;68687;52.030;7.110;2023-04-28T13:05:25;100284.53;;;13.97;92.59
41654;BME280;68687;52.030;7.110;2023-04-28T13:07:52;100280.50;;;13.74;91.43
41654;BME280;68687;52.030;7.110;2023-04-28T13:10:17;100273.88;;;14.15;91.79
41654;BME280;68687;52.030;7.110;2023-04-28T13:12:51;100274.09;;;14.13;90.46
41654;BME280;68687;52.030;7.110;2023-04-28T13:15:16;100273.22;;;14.19;89.98
41654;BME280;68687;52.030;7.110;2023-04-28T13:17:44;100281.91;;;13.83;92.14
41654;BME280;68687;52.030;7.110;2023-04-28T13:20:10;100277.13;;;13.85;93.35
41654;BME280;68687;52.030;7.110;2023-04-28T13:22:36;100274.44;;;13.85;93.89
41654;BME280;68687;52.030;7.110;2023-04-28T13:25:10;100275.03;;;13.87;93.47
41654;BME280;68687;52.030;7.110;2023-04-28T13:27:38;100276.88;;;13.93;93.67